秋田 の空港の天気 - METARとTAF

秋田空港 ( RJSK / AXT ) - 秋田県秋田市
飛行場実況気象(Metar)
観測時間11/22 21:00 JST (11/22 12:00 UTC)
風向・風速南南東 2m/s
視程10km以上
天気現象
少しの雲 雲底高度 610m
全天の8割程度の雲 雲底高度 1520m
全天の8割程度の雲 雲底高度 2440m
気温4℃
湿度81%
気圧1013hPa
METARRJSK 221200Z 15003KT 110V200 9999 FEW020 BKN050 BKN080 04/01 Q1013
過去の天気等 Google飛行場航空写真 Wunderground天気予報

過去48時間のMETAR

飛行場予報(TAF)
発表時間: 11/22 20:06 JST (11/22 11:06 UTC)
予報対象時間: 22日21時 JST ~ 24日3時 JST
風向・風速南東 3m/s
視程8,000m
天気現象弱いしゅう雨
少しの雲 雲底高度 150m
全天の4割程度の雲 雲底高度 300m
全天の8割程度の雲 雲底高度 610m
22日21時 JST ~ 23日3時 JST に一時的に
視程1,500m
天気現象雷雨 もや
少しの雲 雲底高度 60m
全天の8割程度の雲 雲底高度 150m
全天の8割程度の雲 雲底高度 240m
少しの積乱雲 雲底高度 610m
23日3時 JST ~ 23日9時 JST に一時的に
視程3,000m
天気現象しゅう雨 もや
少しの雲 雲底高度 60m
全天の8割程度の雲 雲底高度 150m
全天の8割程度の雲 雲底高度 610m
23日7時 JST ~ 23日9時 JST に徐々に
風向・風速西北西 4m/s
TAF RJSK 221106Z 2212/2318 13006KT 8000 -SHRA FEW005 SCT010 BKN020
TEMPO 2212/2218 1500 TSRA BR FEW002 BKN005 BKN008 FEW020CB
TEMPO 2218/2300 3000 SHRA BR FEW002 BKN005 BKN020
BECMG 2222/2300 30008KT
日本の空港のMETAR・TAFへのリンク

RJTT 東京国際空港
RJAA 新東京国際空港
RJBB 関西国際空港
RJOO 大阪空港
RJGG 中部国際空港
RJCC 新千歳空港
RJFF 福岡空港
ROAH 那覇空港


RJEC 旭川空港
RJCH 函館空港
RJCK 釧路空港
RJCM 女満別空港
RJCB 帯広空港
RJSA 青森空港
RJSS 仙台空港
RJSK 秋田空港
RJSF 福島空港
RJAH 茨城空港
RJSN 新潟空港
RJNT 富山空港
RJNK 小松飛行場
RJNS 静岡空港
RJOH 美保飛行場
RJOC 出雲空港
RJOB 岡山空港
RJOA 広島空港
RJOI 岩国飛行場
RJOT 高松空港
RJOM 松山空港
RJOK 高知空港
RJFR 北九州空港
RJFT 熊本空港
RJFU 長崎空港
RJFS 佐賀空港
RJFO 大分空港
RJFM 宮崎空港
RJFK 鹿児島空港
ROIG 石垣島空港
RJTY 横田飛行場
ROTM 普天間飛行場
RODN 嘉手納飛行場